Time;durP1;ratioP1;P1;durP2;ratioP2;P2;SDS_P1;SDS_P2;PMS_P1;PMS_P2;Temp;Humidity;BMP_temperature;BMP_pressure;BME280_temperature;BME280_humidity;BME280_pressure;Samples;Min_cycle;Max_cycle;Signal;HPM_P1;HPM_P2
2023/05/18 00:01:56;;;;;;;15.23;6.00;;;9.20;99.90;;;;;;2603476;54;20030;31
2023/05/18 00:07:38;;;;;;;15.10;5.78;;;9.20;99.90;;;;;;2603407;54;20810;31
2023/05/18 00:10:19;;;;;;;19.92;5.20;;;9.20;99.90;;;;;;2621793;46;20034;31
2023/05/18 00:13:00;;;;;;;14.05;4.70;;;9.20;99.90;;;;;;2603317;54;20943;31
2023/05/18 00:15:38;;;;;;;19.47;5.07;;;9.20;99.90;;;;;;2602557;54;20062;31
2023/05/18 00:18:17;;;;;;;15.02;5.32;;;9.10;99.90;;;;;;2612460;46;20254;31
2023/05/18 00:20:57;;;;;;;17.15;4.85;;;9.10;99.90;;;;;;2615353;46;20039;31
2023/05/18 00:23:48;;;;;;;11.70;4.47;;;9.10;99.90;;;;;;2603049;54;20162;31
2023/05/18 00:26:32;;;;;;;17.33;5.72;;;9.20;99.90;;;;;;2603133;54;20152;31
2023/05/18 00:29:08;;;;;;;14.05;4.45;;;9.20;99.90;;;;;;2603616;54;20031;31
2023/05/18 00:31:44;;;;;;;12.63;4.93;;;9.10;99.90;;;;;;2621814;46;20026;31
2023/05/18 00:34:25;;;;;;;16.25;4.80;;;9.10;99.90;;;;;;2621613;46;20910;31
2023/05/18 00:37:02;;;;;;;13.80;5.05;;;9.10;99.90;;;;;;2603657;54;20034;31
2023/05/18 00:39:43;;;;;;;16.27;5.20;;;9.00;99.90;;;;;;2602561;54;20872;31
2023/05/18 00:42:24;;;;;;;15.18;6.15;;;9.10;99.90;;;;;;2603270;54;20029;31
2023/05/18 00:45:00;;;;;;;15.67;6.30;;;9.00;99.90;;;;;;2621726;46;20034;31
2023/05/18 00:47:40;;;;;;;14.65;5.40;;;9.00;99.90;;;;;;2603052;54;20868;31
2023/05/18 00:50:22;;;;;;;15.98;5.30;;;9.00;99.90;;;;;;2603705;54;20045;31
2023/05/18 00:53:10;;;;;;;13.10;5.13;;;8.90;99.90;;;;;;2603415;54;20038;31
2023/05/18 00:55:53;;;;;;;13.50;6.40;;;8.90;99.90;;;;;;2603144;54;20030;31
2023/05/18 00:58:32;;;;;;;12.70;5.20;;;8.80;99.90;;;;;;2603490;54;20046;31
2023/05/18 01:01:10;;;;;;;14.18;4.82;;;8.80;99.90;;;;;;2603581;54;20030;31
2023/05/18 01:03:55;;;;;;;16.65;4.80;;;8.80;99.90;;;;;;2603360;54;20895;31
2023/05/18 01:06:35;;;;;;;13.98;4.75;;;8.70;99.90;;;;;;2621987;46;20033;31
2023/05/18 01:09:13;;;;;;;13.20;4.75;;;8.70;99.90;;;;;;2603367;54;20882;31
2023/05/18 01:11:58;;;;;;;12.35;4.00;;;8.70;99.90;;;;;;2621416;46;20033;31
2023/05/18 01:14:39;;;;;;;14.90;5.30;;;8.60;99.90;;;;;;2602651;54;20836;31
2023/05/18 01:17:32;;;;;;;11.80;4.70;;;8.70;99.90;;;;;;2609864;46;21205;31
2023/05/18 01:20:32;;;;;;;10.57;4.33;;;8.60;99.90;;;;;;2621991;46;20097;31
2023/05/18 01:23:40;;;;;;;13.33;4.40;;;8.60;99.90;;;;;;2603091;54;21280;31
2023/05/18 01:26:28;;;;;;;14.27;4.53;;;8.60;99.90;;;;;;2603372;54;20920;31
2023/05/18 01:29:04;;;;;;;15.23;4.50;;;8.60;99.90;;;;;;2603170;54;20022;31
2023/05/18 01:31:44;;;;;;;15.07;4.57;;;8.50;99.90;;;;;;2603415;54;20755;31
2023/05/18 01:34:20;;;;;;;15.55;3.97;;;8.50;99.90;;;;;;2603110;54;20035;31
2023/05/18 01:36:56;;;;;;;12.20;3.88;;;8.50;99.90;;;;;;2602458;54;20042;31
2023/05/18 01:39:40;;;;;;;12.75;4.07;;;8.50;99.90;;;;;;2603155;54;20100;31
2023/05/18 01:42:22;;;;;;;10.25;3.65;;;8.40;99.90;;;;;;2603122;54;20042;31
2023/05/18 01:45:06;;;;;;;11.52;4.80;;;8.40;99.90;;;;;;2621986;46;20045;31
2023/05/18 01:47:44;;;;;;;10.70;3.97;;;8.40;99.90;;;;;;2603143;54;20042;31
2023/05/18 01:50:23;;;;;;;18.55;4.85;;;8.50;99.90;;;;;;2621767;46;20030;31
2023/05/18 01:53:02;;;;;;;12.25;4.07;;;8.40;99.90;;;;;;2603204;54;20034;31
2023/05/18 01:55:38;;;;;;;14.63;4.70;;;8.40;99.90;;;;;;2603000;54;20100;31
2023/05/18 01:58:17;;;;;;;11.07;3.85;;;8.40;99.90;;;;;;2602347;54;20883;31
2023/05/18 02:00:55;;;;;;;11.95;3.70;;;8.30;99.90;;;;;;2620985;46;20950;31
2023/05/18 02:03:34;;;;;;;7.35;3.85;;;8.30;99.90;;;;;;2603292;54;20027;31
2023/05/18 02:06:12;;;;;;;16.90;4.53;;;8.30;99.90;;;;;;2603021;54;25157;31
2023/05/18 02:08:55;;;;;;;12.70;4.05;;;8.20;99.90;;;;;;2603155;54;20972;31
2023/05/18 02:11:43;;;;;;;20.55;4.35;;;8.20;99.90;;;;;;2603059;54;20776;31
2023/05/18 02:14:32;;;;;;;14.52;4.15;;;8.20;99.90;;;;;;2603112;54;20923;31
2023/05/18 02:17:10;;;;;;;15.15;4.10;;;8.20;99.90;;;;;;2603044;54;20914;31
2023/05/18 02:19:51;;;;;;;14.75;4.53;;;8.10;99.90;;;;;;2603063;54;20101;31
2023/05/18 02:22:35;;;;;;;10.82;4.47;;;8.10;99.90;;;;;;2621517;46;20023;31
2023/05/18 02:25:13;;;;;;;14.90;4.20;;;8.10;99.90;;;;;;2603108;54;20859;31
2023/05/18 02:27:51;;;;;;;12.77;4.00;;;8.10;99.90;;;;;;2603156;54;20034;31
2023/05/18 02:30:33;;;;;;;16.70;4.03;;;8.10;99.90;;;;;;2603269;54;20038;31
2023/05/18 02:33:10;;;;;;;11.57;4.47;;;8.10;99.90;;;;;;2602873;54;20934;31
2023/05/18 02:35:55;;;;;;;12.82;3.65;;;8.00;99.90;;;;;;2602804;54;20046;31
2023/05/18 02:38:34;;;;;;;10.02;3.60;;;8.10;99.90;;;;;;2621627;46;20042;31
2023/05/18 02:41:16;;;;;;;8.50;3.85;;;8.10;99.90;;;;;;2602966;54;20866;31
2023/05/18 02:43:54;;;;;;;11.35;3.80;;;8.00;99.90;;;;;;2621486;46;20774;31
2023/05/18 02:46:35;;;;;;;11.90;4.20;;;8.00;99.90;;;;;;2603060;54;20061;31
2023/05/18 02:49:18;;;;;;;11.88;3.35;;;7.90;99.90;;;;;;2621088;46;20026;31
2023/05/18 02:51:56;;;;;;;10.63;3.80;;;7.90;99.90;;;;;;2602883;54;20124;31
2023/05/18 02:54:34;;;;;;;10.75;3.85;;;7.90;99.90;;;;;;2602931;54;20042;31
2023/05/18 02:57:30;;;;;;;9.38;3.70;;;7.90;99.90;;;;;;2607623;39;22228;31
2023/05/18 03:00:18;;;;;;;13.35;3.85;;;7.90;99.90;;;;;;2603045;54;20029;31
2023/05/18 03:03:04;;;;;;;10.95;3.20;;;7.90;99.90;;;;;;2602942;54;20051;31
2023/05/18 03:05:42;;;;;;;9.45;4.22;;;7.90;99.90;;;;;;2603004;54;20894;31
2023/05/18 03:08:21;;;;;;;8.40;3.80;;;7.80;99.90;;;;;;2621784;46;20924;31
2023/05/18 03:10:57;;;;;;;10.38;4.35;;;7.80;99.90;;;;;;2602058;54;20025;31
2023/05/18 03:13:38;;;;;;;12.77;4.10;;;7.80;99.90;;;;;;2602156;54;20024;31
2023/05/18 03:16:17;;;;;;;7.28;3.67;;;7.80;99.90;;;;;;2602733;54;20031;31
2023/05/18 03:18:52;;;;;;;10.75;3.20;;;7.80;99.90;;;;;;2626860;39;21461;31
2023/05/18 03:21:35;;;;;;;9.73;3.63;;;7.70;99.90;;;;;;2602162;54;20124;31
2023/05/18 03:24:19;;;;;;;10.30;3.40;;;7.80;99.90;;;;;;2621229;47;20039;31
2023/05/18 03:27:09;;;;;;;7.90;3.10;;;7.80;99.90;;;;;;2602668;54;20846;31
2023/05/18 03:32:36;;;;;;;12.35;2.90;;;7.80;99.90;;;;;;2602891;54;21046;31
2023/05/18 03:35:14;;;;;;;10.05;4.00;;;7.80;99.90;;;;;;2602902;54;20034;31
2023/05/18 03:38:00;;;;;;;9.60;3.47;;;7.70;99.90;;;;;;2602964;54;20872;31
2023/05/18 03:40:41;;;;;;;9.18;3.45;;;7.70;99.90;;;;;;2602674;54;20042;31
2023/05/18 03:43:24;;;;;;;12.68;4.47;;;7.70;99.90;;;;;;2613296;47;20027;31
2023/05/18 03:46:08;;;;;;;12.15;4.07;;;7.60;99.90;;;;;;2603018;54;20042;31
2023/05/18 03:48:54;;;;;;;9.48;3.33;;;7.60;99.90;;;;;;2602984;54;20053;31
2023/05/18 03:51:40;;;;;;;12.33;3.60;;;7.50;99.90;;;;;;2602767;54;20027;31
2023/05/18 03:54:23;;;;;;;12.45;3.58;;;7.50;99.90;;;;;;2616709;47;20914;31
2023/05/18 03:56:59;;;;;;;16.00;5.00;;;7.60;99.90;;;;;;2602726;54;20880;31
2023/05/18 03:59:38;;;;;;;12.35;4.03;;;7.60;99.90;;;;;;2602880;54;20028;31
2023/05/18 04:02:15;;;;;;;12.18;3.67;;;7.70;99.90;;;;;;2602660;54;20042;31
2023/05/18 04:04:57;;;;;;;13.18;3.97;;;7.60;99.90;;;;;;2602477;54;20093;31
2023/05/18 04:07:42;;;;;;;16.10;4.85;;;7.70;99.90;;;;;;2621097;47;21219;31
2023/05/18 04:10:25;;;;;;;14.18;4.18;;;7.70;99.90;;;;;;2618254;39;21403;31
2023/05/18 04:13:05;;;;;;;13.70;4.00;;;7.70;99.90;;;;;;2602782;54;20856;31
2023/05/18 04:15:44;;;;;;;8.50;3.50;;;7.80;99.90;;;;;;2620998;47;20034;31
2023/05/18 04:18:30;;;;;;;15.55;4.13;;;7.80;99.90;;;;;;2601713;54;20073;31
2023/05/18 04:21:14;;;;;;;10.23;4.35;;;7.80;99.90;;;;;;2602452;54;20852;31
2023/05/18 04:23:54;;;;;;;12.50;4.30;;;7.80;99.90;;;;;;2603038;54;20030;31
2023/05/18 04:26:40;;;;;;;11.93;4.60;;;7.90;99.90;;;;;;2603840;54;19934;31
2023/05/18 04:29:23;;;;;;;9.95;3.40;;;7.90;99.90;;;;;;2680981;39;21425;31
2023/05/18 04:34:57;;;;;;;13.35;3.47;;;8.00;99.90;;;;;;2603262;54;20857;31
2023/05/18 04:38:04;;;;;;;10.90;3.67;;;8.00;99.90;;;;;;2621929;46;20030;31
2023/05/18 04:40:55;;;;;;;11.20;3.70;;;8.10;99.90;;;;;;2603472;54;20026;31
2023/05/18 04:44:01;;;;;;;12.23;3.30;;;8.20;99.90;;;;;;2607585;46;20018;31
2023/05/18 04:46:55;;;;;;;15.13;3.95;;;8.20;99.90;;;;;;2603267;54;20025;31
2023/05/18 04:49:39;;;;;;;12.52;3.17;;;8.20;99.90;;;;;;2603613;54;20032;31
2023/05/18 04:52:18;;;;;;;12.90;3.23;;;8.30;99.90;;;;;;2603528;54;20104;31
2023/05/18 04:58:01;;;;;;;12.88;2.97;;;8.30;99.90;;;;;;2603346;54;21003;31
2023/05/18 05:00:48;;;;;;;14.32;4.85;;;8.40;99.90;;;;;;2618926;39;20354;31
2023/05/18 05:03:22;;;;;;;7.93;3.10;;;8.40;99.90;;;;;;2614509;46;20034;31
2023/05/18 05:06:13;;;;;;;7.43;2.83;;;8.50;99.90;;;;;;2603228;54;20862;31
2023/05/18 05:09:00;;;;;;;12.77;3.25;;;8.50;99.90;;;;;;2617454;46;20812;31
2023/05/18 05:11:42;;;;;;;10.52;3.28;;;8.60;99.90;;;;;;2603196;54;20434;31
2023/05/18 05:14:23;;;;;;;12.98;3.45;;;8.60;99.90;;;;;;2603293;54;20046;31
2023/05/18 05:20:09;;;;;;;8.40;3.50;;;8.70;99.90;;;;;;2603314;54;20943;31
2023/05/18 05:22:58;;;;;;;14.38;3.38;;;8.80;99.90;;;;;;2603008;54;20046;31
2023/05/18 05:25:37;;;;;;;13.43;3.40;;;8.90;99.90;;;;;;2607739;39;21492;31
2023/05/18 05:28:32;;;;;;;13.60;4.55;;;9.00;99.90;;;;;;2603229;54;20034;31
2023/05/18 05:31:08;;;;;;;14.18;3.03;;;9.10;99.90;;;;;;2621361;46;20370;31
2023/05/18 05:40:00;;;;;;;;;;;;;;;;;;;;;
2023/05/18 05:43:05;;;;;;;11.20;3.70;;;9.20;99.90;;;;;;2603585;54;20029;31
2023/05/18 05:54:44;;;;;;;13.13;3.50;;;9.30;99.90;;;;;;2603310;54;20808;31
2023/05/18 06:00:49;;;;;;;8.50;2.60;;;9.50;99.90;;;;;;2603614;54;20061;31
2023/05/18 06:03:37;;;;;;;12.95;2.85;;;9.60;99.90;;;;;;2621436;46;20932;31
2023/05/18 06:06:16;;;;;;;12.07;3.08;;;9.70;99.90;;;;;;2603348;54;20890;31
2023/05/18 06:08:59;;;;;;;17.05;4.65;;;9.80;99.90;;;;;;2603021;54;20760;31
2023/05/18 06:11:42;;;;;;;10.55;2.75;;;10.00;99.90;;;;;;2621124;46;20032;31
2023/05/18 06:14:21;;;;;;;9.93;3.13;;;10.20;99.90;;;;;;2603319;54;20044;31
2023/05/18 06:20:07;;;;;;;14.25;3.50;;;10.50;99.90;;;;;;2602929;54;20068;31
2023/05/18 06:22:49;;;;;;;11.00;3.28;;;10.80;99.90;;;;;;2603106;54;20131;31
2023/05/18 06:25:39;;;;;;;;;;;10.90;99.90;;;;;;2603444;54;20829;31
2023/05/18 06:28:25;;;;;;;9.43;2.53;;;11.10;99.90;;;;;;2622144;46;20740;31
2023/05/18 06:31:19;;;;;;;10.85;2.20;;;11.20;99.90;;;;;;2603228;54;20869;31
2023/05/18 06:34:07;;;;;;;8.15;2.00;;;11.30;99.90;;;;;;2603127;54;20050;31
2023/05/18 06:36:44;;;;;;;7.97;1.55;;;11.30;99.90;;;;;;2621833;46;20056;31
2023/05/18 06:39:28;;;;;;;8.97;1.60;;;11.30;99.90;;;;;;2602729;54;19934;31
2023/05/18 06:42:11;;;;;;;13.05;1.95;;;11.30;99.90;;;;;;2603275;54;20136;31
2023/05/18 06:44:57;;;;;;;5.35;1.75;;;11.30;99.90;;;;;;2621569;46;20047;31
2023/05/18 06:47:54;;;;;;;4.18;1.08;;;11.40;99.90;;;;;;2602672;54;20973;31
2023/05/18 06:50:33;;;;;;;7.20;1.08;;;11.40;99.90;;;;;;2603372;54;20026;31
2023/05/18 06:53:15;;;;;;;13.47;1.40;;;11.40;99.90;;;;;;2603298;54;20427;31
2023/05/18 06:56:00;;;;;;;7.15;2.03;;;11.50;99.90;;;;;;2603071;54;20756;31
2023/05/18 07:01:41;;;;;;;7.55;1.90;;;11.60;99.90;;;;;;2612066;31;20317;31
2023/05/18 07:04:32;;;;;;;5.90;1.42;;;11.80;99.90;;;;;;2704164;39;20401;31
2023/05/18 07:07:17;;;;;;;5.23;1.83;;;12.00;99.90;;;;;;2603122;54;20022;31
2023/05/18 07:10:04;;;;;;;9.70;1.70;;;11.90;99.90;;;;;;2621455;46;20033;31
2023/05/18 07:15:34;;;;;;;8.00;1.60;;;11.90;99.90;;;;;;2602800;54;22248;31
2023/05/18 07:21:17;;;;;;;6.93;1.50;;;11.80;99.90;;;;;;2612841;46;20046;31
2023/05/18 07:24:08;;;;;;;5.60;1.25;;;11.90;99.90;;;;;;2603162;54;20105;31
2023/05/18 07:26:52;;;;;;;;;;;11.90;99.90;;;;;;2649469;39;21454;31
2023/05/18 07:29:37;;;;;;;5.38;1.63;;;12.00;99.90;;;;;;2603142;54;19934;31
2023/05/18 07:32:20;;;;;;;8.00;1.50;;;12.10;99.90;;;;;;2602583;54;20049;31
2023/05/18 07:34:55;;;;;;;6.53;1.65;;;12.30;99.90;;;;;;2602224;54;20238;31
2023/05/18 07:37:38;;;;;;;40.53;6.00;;;12.50;99.90;;;;;;2616208;47;20026;31
2023/05/18 07:40:15;;;;;;;11.95;1.90;;;12.80;99.90;;;;;;2606887;39;22258;31
2023/05/18 07:42:51;;;;;;;4.13;1.30;;;13.00;99.90;;;;;;2601953;54;20034;31
2023/05/18 07:45:28;;;;;;;5.35;1.35;;;13.30;99.90;;;;;;2681558;39;20363;31
2023/05/18 07:48:10;;;;;;;7.47;1.35;;;13.60;99.90;;;;;;2611829;31;21554;31
2023/05/18 07:50:53;;;;;;;9.00;1.60;;;13.70;99.90;;;;;;2602940;54;20031;31
2023/05/18 07:53:44;;;;;;;6.65;1.25;;;13.90;99.90;;;;;;2602016;54;20035;31
2023/05/18 07:56:32;;;;;;;7.70;1.25;;;14.00;99.90;;;;;;2602001;54;20893;31
2023/05/18 07:59:19;;;;;;;7.75;1.48;;;14.10;99.90;;;;;;2602709;54;20113;31
2023/05/18 08:02:09;;;;;;;6.35;1.15;;;14.20;99.90;;;;;;2603587;54;20057;31
2023/05/18 08:08:15;;;;;;;10.15;1.70;;;14.50;99.90;;;;;;2603500;54;20034;31
2023/05/18 08:10:57;;;;;;;8.68;2.50;;;14.60;99.90;;;;;;2603541;54;20053;31
2023/05/18 08:13:43;;;;;;;6.90;1.48;;;14.70;99.90;;;;;;2622251;46;20093;31
2023/05/18 08:16:20;;;;;;;7.35;1.50;;;14.70;99.90;;;;;;2607727;46;20033;31
2023/05/18 08:18:56;;;;;;;10.45;2.10;;;14.80;99.90;;;;;;2603740;54;20399;31
2023/05/18 08:21:45;;;;;;;14.93;2.97;;;14.90;99.90;;;;;;2603854;54;20053;31
2023/05/18 08:31:03;;;;;;;6.80;1.52;;;15.40;99.90;;;;;;2622088;46;20022;31
2023/05/18 08:37:00;;;;;;;14.95;5.00;;;15.50;99.90;;;;;;2603037;54;20056;31
2023/05/18 08:39:39;;;;;;;16.75;6.20;;;15.70;99.90;;;;;;2602710;54;20783;31
2023/05/18 08:42:28;;;;;;;9.77;3.25;;;15.70;99.90;;;;;;2602774;54;20049;31
2023/05/18 08:45:27;;;;;;;8.40;2.00;;;15.80;99.90;;;;;;2603601;54;20140;31
2023/05/18 08:48:05;;;;;;;6.37;1.57;;;15.90;99.90;;;;;;2603330;54;20049;31
2023/05/18 08:50:43;;;;;;;6.07;1.45;;;16.00;99.90;;;;;;2619147;39;20334;31
2023/05/18 08:53:38;;;;;;;4.78;1.98;;;16.00;99.90;;;;;;2603387;54;20077;31
2023/05/18 08:56:16;;;;;;;39.67;6.10;;;16.20;99.90;;;;;;2621839;46;20493;31
2023/05/18 08:58:57;;;;;;;11.85;1.65;;;16.20;99.90;;;;;;2602686;54;20030;31
2023/05/18 09:01:37;;;;;;;8.95;1.88;;;16.10;99.90;;;;;;2603360;46;20743;31
2023/05/18 09:04:16;;;;;;;6.20;2.35;;;16.10;99.90;;;;;;2618430;46;20898;31
2023/05/18 09:06:58;;;;;;;7.65;2.13;;;15.90;99.90;;;;;;2603430;54;20116;31
2023/05/18 09:09:52;;;;;;;11.35;1.70;;;15.90;99.90;;;;;;2603530;54;20030;31
2023/05/18 09:12:30;;;;;;;7.03;1.40;;;15.90;99.90;;;;;;2603284;54;20033;31
2023/05/18 09:18:01;;;;;;;5.60;1.50;;;16.00;99.90;;;;;;2603303;54;20042;31
2023/05/18 09:20:36;;;;;;;8.02;1.30;;;16.10;99.90;;;;;;2602437;54;20096;31
2023/05/18 09:23:25;;;;;;;4.07;1.00;;;16.10;99.90;;;;;;2603191;54;20100;31
2023/05/18 09:26:11;;;;;;;5.03;1.30;;;16.20;99.90;;;;;;2618138;39;21746;31
2023/05/18 09:31:33;;;;;;;6.00;1.40;;;16.10;99.90;;;;;;2603342;54;20858;31
2023/05/18 09:34:11;;;;;;;11.60;2.07;;;16.00;99.90;;;;;;2628453;39;21433;31
2023/05/18 09:36:51;;;;;;;11.55;1.52;;;15.80;99.90;;;;;;2621835;46;20433;31
2023/05/18 09:39:29;;;;;;;7.20;0.90;;;16.00;99.90;;;;;;2602650;54;20880;31
2023/05/18 09:42:27;;;;;;;2.45;1.00;;;16.10;99.90;;;;;;2611742;46;20042;31
2023/05/18 09:45:27;;;;;;;22.77;2.50;;;16.30;99.90;;;;;;2602977;54;20892;31
2023/05/18 09:51:23;;;;;;;6.28;1.58;;;16.50;99.90;;;;;;2621218;46;20920;31
2023/05/18 09:54:06;;;;;;;9.87;1.00;;;16.50;99.90;;;;;;2621687;46;20030;31
2023/05/18 09:56:55;;;;;;;3.33;1.13;;;16.60;99.90;;;;;;2603160;54;20027;31
2023/05/18 09:59:50;;;;;;;4.45;1.35;;;16.60;99.90;;;;;;2621678;46;20046;31
2023/05/18 10:02:43;;;;;;;5.83;1.30;;;16.60;99.90;;;;;;2621500;46;21430;31
2023/05/18 10:05:23;;;;;;;7.25;1.25;;;16.50;99.90;;;;;;2602946;54;20796;31
2023/05/18 10:07:59;;;;;;;5.65;1.00;;;16.60;99.90;;;;;;2602808;54;21067;31
2023/05/18 10:10:37;;;;;;;;;;;16.70;99.90;;;;;;2603209;54;20879;31
2023/05/18 10:13:19;;;;;;;7.50;1.13;;;16.70;99.90;;;;;;2621730;46;19961;31
2023/05/18 10:16:02;;;;;;;5.55;0.70;;;16.90;99.90;;;;;;2603186;54;20744;31
2023/05/18 10:18:44;;;;;;;5.47;0.90;;;17.30;99.90;;;;;;2620968;46;20034;31
2023/05/18 10:21:23;;;;;;;2.20;0.80;;;17.60;99.90;;;;;;2621441;46;20900;31
2023/05/18 10:24:01;;;;;;;4.13;0.93;;;17.50;99.90;;;;;;2603026;54;20081;31
2023/05/18 10:26:39;;;;;;;;;;;17.30;99.90;;;;;;2621415;46;20050;31
2023/05/18 10:29:14;;;;;;;3.15;1.05;;;17.50;99.90;;;;;;2602950;54;20668;31
2023/05/18 10:31:50;;;;;;;3.33;1.50;;;17.50;99.90;;;;;;2603058;54;20099;31
2023/05/18 10:34:30;;;;;;;3.35;0.50;;;17.50;99.90;;;;;;2621127;46;20519;31
2023/05/18 10:37:08;;;;;;;2.95;0.40;;;17.50;99.90;;;;;;2668489;39;20342;31
2023/05/18 10:39:46;;;;;;;2.78;0.50;;;17.30;99.40;;;;;;2603029;54;20060;31
2023/05/18 10:42:24;;;;;;;2.85;0.70;;;17.00;98.90;;;;;;2603025;54;20863;31
2023/05/18 10:45:02;;;;;;;2.43;0.43;;;17.20;99.90;;;;;;2602946;54;20875;31
2023/05/18 10:47:38;;;;;;;3.70;0.80;;;17.30;98.80;;;;;;2659124;39;20365;31
2023/05/18 10:50:18;;;;;;;4.17;1.13;;;17.50;99.70;;;;;;2602201;54;21080;31
2023/05/18 10:53:01;;;;;;;6.00;0.60;;;17.60;98.00;;;;;;2602161;54;21251;31
2023/05/18 10:55:39;;;;;;;9.77;1.00;;;17.90;98.90;;;;;;2601968;54;20092;31
2023/05/18 10:58:16;;;;;;;3.25;0.75;;;18.00;98.20;;;;;;2621647;46;20026;31
2023/05/18 11:00:54;;;;;;;5.10;1.40;;;18.20;98.00;;;;;;2602860;54;20905;31
2023/05/18 11:03:31;;;;;;;9.63;1.30;;;18.10;96.10;;;;;;2621334;46;20045;31
2023/05/18 11:06:13;;;;;;;10.65;2.00;;;18.00;96.50;;;;;;2602219;54;20041;31
2023/05/18 11:11:59;;;;;;;2.13;0.70;;;18.00;99.10;;;;;;2602057;54;20026;31
2023/05/18 11:14:37;;;;;;;4.15;0.55;;;18.10;97.50;;;;;;2602766;54;20042;31
2023/05/18 11:17:21;;;;;;;3.22;0.70;;;18.10;97.50;;;;;;2602237;54;20049;31
2023/05/18 11:20:14;;;;;;;4.40;0.90;;;18.20;98.90;;;;;;2602784;54;20817;31
2023/05/18 11:25:53;;;;;;;3.72;0.70;;;18.20;97.20;;;;;;2602861;54;20952;31
2023/05/18 11:28:30;;;;;;;7.30;0.90;;;18.20;99.30;;;;;;2602992;54;20755;31
2023/05/18 11:31:06;;;;;;;2.50;0.50;;;18.40;97.60;;;;;;2602689;54;20282;31
2023/05/18 11:33:44;;;;;;;3.05;0.50;;;18.50;96.20;;;;;;2602908;54;20022;31
2023/05/18 11:36:23;;;;;;;3.85;0.75;;;18.50;95.30;;;;;;2602843;54;20046;31
2023/05/18 11:39:06;;;;;;;2.58;0.40;;;18.50;95.90;;;;;;2603540;54;20046;31
2023/05/18 11:41:48;;;;;;;2.58;0.60;;;18.40;94.90;;;;;;2603636;54;20030;31
2023/05/18 11:44:26;;;;;;;2.10;0.85;;;18.30;94.30;;;;;;2602889;54;20019;31
2023/05/18 11:47:07;;;;;;;2.85;0.80;;;18.20;95.20;;;;;;2603778;54;20764;31
2023/05/18 11:49:48;;;;;;;5.80;0.90;;;18.20;96.10;;;;;;2603569;54;21114;31
2023/05/18 11:52:26;;;;;;;2.30;0.60;;;18.20;96.30;;;;;;2603381;54;20855;31
2023/05/18 11:55:01;;;;;;;5.68;0.63;;;18.30;97.50;;;;;;2603505;54;22222;31
2023/05/18 11:57:44;;;;;;;4.27;0.87;;;18.10;95.40;;;;;;2602732;54;20030;31
2023/05/18 12:00:27;;;;;;;2.35;0.60;;;18.10;97.30;;;;;;2602814;54;20243;31
2023/05/18 12:03:04;;;;;;;2.20;0.47;;;18.10;95.20;;;;;;2602671;54;20054;31
2023/05/18 12:05:43;;;;;;;1.63;0.60;;;18.10;96.40;;;;;;2602715;54;20019;31
2023/05/18 12:08:28;;;;;;;1.63;0.40;;;18.10;96.10;;;;;;2603448;54;21442;31
2023/05/18 12:11:03;;;;;;;3.17;0.80;;;18.00;96.20;;;;;;2603584;54;20441;31
2023/05/18 12:13:43;;;;;;;2.58;0.55;;;18.10;97.70;;;;;;2602861;54;20928;31
2023/05/18 12:16:21;;;;;;;3.85;0.73;;;18.10;95.50;;;;;;2608832;39;21436;31
2023/05/18 12:18:57;;;;;;;2.53;0.50;;;18.10;97.10;;;;;;2603608;54;20046;31
2023/05/18 12:21:33;;;;;;;1.17;0.43;;;18.20;97.10;;;;;;2603719;54;20372;31
2023/05/18 12:24:11;;;;;;;4.93;0.80;;;18.20;94.60;;;;;;2603491;54;20444;31
2023/05/18 12:26:47;;;;;;;8.60;1.35;;;18.20;95.80;;;;;;2603397;54;20489;31
2023/05/18 12:29:26;;;;;;;2.63;0.85;;;18.20;95.50;;;;;;2621811;46;20031;31
2023/05/18 12:32:11;;;;;;;2.70;0.50;;;18.30;94.90;;;;;;2603589;54;20422;31
2023/05/18 12:34:52;;;;;;;3.15;0.90;;;18.20;94.50;;;;;;2603435;54;21584;31
2023/05/18 12:37:28;;;;;;;86.97;8.90;;;18.20;93.40;;;;;;2611062;46;20073;31
2023/05/18 12:40:23;;;;;;;5.53;0.90;;;18.20;95.00;;;;;;2603326;54;20370;31
2023/05/18 12:42:59;;;;;;;1.30;0.57;;;18.10;93.20;;;;;;2603591;54;20038;31
2023/05/18 12:45:48;;;;;;;1.45;0.60;;;17.90;91.90;;;;;;2603565;54;20385;31
2023/05/18 12:48:29;;;;;;;5.70;1.67;;;17.90;93.10;;;;;;2618992;39;21346;31
2023/05/18 12:51:05;;;;;;;3.10;0.82;;;17.90;94.70;;;;;;2603398;54;20430;31
2023/05/18 12:53:44;;;;;;;6.13;1.45;;;17.90;93.20;;;;;;2603033;54;20030;31
2023/05/18 12:56:24;;;;;;;3.67;1.70;;;17.90;94.40;;;;;;2602568;54;20454;31
2023/05/18 12:59:09;;;;;;;1.30;0.43;;;17.80;94.60;;;;;;2603311;54;20112;31
2023/05/18 13:01:48;;;;;;;6.45;0.63;;;17.90;96.30;;;;;;2603418;54;20026;31
2023/05/18 13:04:26;;;;;;;1.90;0.70;;;17.90;94.60;;;;;;2638911;39;20142;31
2023/05/18 13:07:02;;;;;;;3.22;0.68;;;18.00;93.40;;;;;;2603345;54;20888;31
2023/05/18 13:09:38;;;;;;;2.67;0.60;;;18.10;95.30;;;;;;2602923;54;20140;31
2023/05/18 13:12:15;;;;;;;5.35;0.60;;;18.10;96.40;;;;;;2615880;46;20497;31
2023/05/18 13:14:55;;;;;;;4.65;0.75;;;18.20;94.40;;;;;;2621755;46;20026;31
2023/05/18 13:17:34;;;;;;;1.40;0.50;;;18.30;93.00;;;;;;2603518;54;20058;31
2023/05/18 13:20:41;;;;;;;0.98;0.40;;;18.20;93.90;;;;;;2603183;54;20064;31
2023/05/18 13:23:23;;;;;;;3.30;0.75;;;18.20;93.30;;;;;;2610317;46;20799;31
2023/05/18 13:26:01;;;;;;;3.40;0.70;;;18.20;94.40;;;;;;2621892;46;20728;31
2023/05/18 13:28:40;;;;;;;4.22;1.55;;;18.30;93.40;;;;;;2603431;54;20069;31
2023/05/18 13:31:21;;;;;;;5.60;1.30;;;18.20;93.10;;;;;;2603282;54;20034;31
2023/05/18 13:34:01;;;;;;;1.53;0.67;;;18.20;92.90;;;;;;2639062;39;20324;31
2023/05/18 13:36:39;;;;;;;2.03;0.60;;;18.10;93.20;;;;;;2602625;54;20896;31
2023/05/18 13:39:20;;;;;;;1.80;0.70;;;18.10;92.90;;;;;;2603208;54;20980;31
2023/05/18 13:42:01;;;;;;;6.03;0.98;;;18.00;92.80;;;;;;2621883;46;20031;31
2023/05/18 13:44:40;;;;;;;3.00;1.23;;;17.90;93.20;;;;;;2603100;54;20030;31
2023/05/18 13:47:21;;;;;;;4.18;0.70;;;17.90;94.20;;;;;;2603174;54;20026;31
2023/05/18 13:52:38;;;;;;;8.73;1.35;;;18.00;95.00;;;;;;2622123;46;20062;31
2023/05/18 13:55:29;;;;;;;4.15;0.90;;;18.00;93.80;;;;;;2602625;54;19935;31
2023/05/18 13:58:06;;;;;;;1.80;0.60;;;17.90;92.20;;;;;;2682682;31;21515;31
2023/05/18 14:00:45;;;;;;;2.45;0.65;;;17.90;94.00;;;;;;2602583;54;19938;31
2023/05/18 14:03:23;;;;;;;3.30;1.33;;;17.90;93.60;;;;;;2602443;54;20522;31
2023/05/18 14:06:00;;;;;;;30.63;3.33;;;17.90;93.00;;;;;;2603261;54;19942;31
2023/05/18 14:08:40;;;;;;;3.07;1.40;;;17.90;92.20;;;;;;2602994;54;20824;31
2023/05/18 14:11:16;;;;;;;3.67;1.08;;;18.00;93.80;;;;;;2603110;54;21138;31
2023/05/18 14:13:52;;;;;;;4.72;1.20;;;18.00;94.20;;;;;;2603106;54;20919;31
2023/05/18 14:16:28;;;;;;;3.10;1.30;;;18.00;93.00;;;;;;2621247;46;20042;31
2023/05/18 14:19:06;;;;;;;1.85;0.90;;;17.90;92.50;;;;;;2603346;54;20081;31
2023/05/18 14:21:43;;;;;;;5.47;0.80;;;18.00;92.00;;;;;;2603216;54;20772;31
2023/05/18 14:24:25;;;;;;;1.90;0.68;;;17.90;92.30;;;;;;2603042;54;21139;31
2023/05/18 14:27:00;;;;;;;2.50;1.10;;;17.90;92.30;;;;;;2622074;46;20037;31
2023/05/18 14:29:38;;;;;;;2.05;0.80;;;17.90;91.90;;;;;;2621576;46;20463;31
2023/05/18 14:32:13;;;;;;;2.85;0.90;;;17.90;91.80;;;;;;2621689;46;20163;31
2023/05/18 14:34:50;;;;;;;2.55;0.75;;;17.90;90.70;;;;;;2602521;54;20027;31
2023/05/18 14:37:26;;;;;;;2.53;0.80;;;17.80;89.80;;;;;;2602844;54;20111;31
2023/05/18 14:40:07;;;;;;;2.05;0.60;;;17.80;90.30;;;;;;2608605;39;20320;31
2023/05/18 14:42:46;;;;;;;2.97;0.98;;;17.80;91.30;;;;;;2618421;39;20381;31
2023/05/18 14:45:21;;;;;;;3.35;1.10;;;17.80;93.10;;;;;;2621482;46;20041;31
2023/05/18 14:48:00;;;;;;;7.50;2.05;;;17.80;92.10;;;;;;2602165;54;20030;31
2023/05/18 14:50:38;;;;;;;4.95;0.93;;;17.80;91.30;;;;;;2603076;54;20877;31
2023/05/18 14:53:19;;;;;;;6.03;0.90;;;17.70;93.20;;;;;;2602888;54;20882;31
2023/05/18 14:56:04;;;;;;;4.88;1.10;;;17.80;92.10;;;;;;2603086;54;20718;31
2023/05/18 14:58:41;;;;;;;1.43;0.50;;;17.80;92.10;;;;;;2603190;54;20422;31
2023/05/18 15:01:22;;;;;;;2.08;0.80;;;17.80;92.50;;;;;;2621428;46;20029;31
2023/05/18 15:03:59;;;;;;;3.53;1.35;;;17.80;93.10;;;;;;2603101;54;20432;31
2023/05/18 15:06:40;;;;;;;5.47;1.85;;;17.90;92.80;;;;;;2621208;46;20109;31
2023/05/18 15:09:20;;;;;;;4.40;1.00;;;17.80;92.10;;;;;;2603094;54;20027;31
2023/05/18 15:12:05;;;;;;;5.35;0.85;;;17.70;92.20;;;;;;2657113;39;20441;31
2023/05/18 15:14:42;;;;;;;4.22;1.30;;;17.80;92.10;;;;;;2603125;54;20883;31
2023/05/18 15:17:18;;;;;;;4.90;0.90;;;17.70;92.80;;;;;;2602811;54;20026;31
2023/05/18 15:19:58;;;;;;;3.15;0.90;;;17.70;93.20;;;;;;2621381;46;20023;31
2023/05/18 15:22:37;;;;;;;3.03;0.82;;;17.70;92.90;;;;;;2603012;54;20914;31
2023/05/18 15:25:15;;;;;;;2.60;0.88;;;17.70;92.90;;;;;;2657494;39;20323;31
2023/05/18 15:27:56;;;;;;;2.30;1.00;;;17.80;93.60;;;;;;2602945;54;20050;31
2023/05/18 15:30:36;;;;;;;2.25;1.35;;;17.80;93.10;;;;;;2603048;54;20399;31
2023/05/18 15:33:13;;;;;;;5.25;2.50;;;17.80;92.70;;;;;;2603037;54;20895;31